Terminal Aerodrome Forecast
Issued by NWS

Home | Current Version | Previous Version | Text Only | Print | Product List | Glossary On
Versions: 1 2 3 4 5 6 7 8 9 10 11 12 13
000
FTUS45 KABQ 231700
TAFROW
TAF
KROW 231720Z 2318/2418 21016G26KT P6SM SCT200
     FM232000 23024G34KT P6SM SCT200
     FM240200 25015KT P6SM SKC
     FM240800 29010KT P6SM SKC
     FM241100 36010KT P6SM SKC=

USA.gov is the U.S. government's official web portal to all federal, state and local government web resources and services.